sensor_id;sensor_type;location;lat;lon;timestamp;temperature;humidity
65995;HTU21D;52764;51.036;5.852;2022-11-20T00:00:51;6.19;70.64
65995;HTU21D;52764;51.036;5.852;2022-11-20T00:03:17;6.25;70.85
65995;HTU21D;52764;51.036;5.852;2022-11-20T00:05:43;6.29;70.02
65995;HTU21D;52764;51.036;5.852;2022-11-20T00:08:09;6.33;69.85
65995;HTU21D;52764;51.036;5.852;2022-11-20T00:10:39;6.35;70.10
65995;HTU21D;52764;51.036;5.852;2022-11-20T00:13:06;6.41;70.06
65995;HTU21D;52764;51.036;5.852;2022-11-20T00:15:32;6.45;69.78
65995;HTU21D;52764;51.036;5.852;2022-11-20T00:17:58;6.48;69.74
65995;HTU21D;52764;51.036;5.852;2022-11-20T00:20:23;6.49;69.88
65995;HTU21D;52764;51.036;5.852;2022-11-20T00:22:50;6.52;69.61
65995;HTU21D;52764;51.036;5.852;2022-11-20T00:25:16;6.55;67.13
65995;HTU21D;52764;51.036;5.852;2022-11-20T00:27:41;6.55;69.67
65995;HTU21D;52764;51.036;5.852;2022-11-20T00:30:08;6.56;69.63
65995;HTU21D;52764;51.036;5.852;2022-11-20T00:32:34;6.50;69.50
65995;HTU21D;52764;51.036;5.852;2022-11-20T00:35:00;15.89;69.66
65995;HTU21D;52764;51.036;5.852;2022-11-20T00:37:27;6.52;69.53
65995;HTU21D;52764;51.036;5.852;2022-11-20T00:39:52;6.48;69.18
65995;HTU21D;52764;51.036;5.852;2022-11-20T00:42:18;6.39;69.78
65995;HTU21D;52764;51.036;5.852;2022-11-20T00:44:44;6.34;69.81
65995;HTU21D;52764;51.036;5.852;2022-11-20T00:47:10;6.34;70.06
65995;HTU21D;52764;51.036;5.852;2022-11-20T00:49:35;6.36;70.29
65995;HTU21D;52764;51.036;5.852;2022-11-20T00:52:01;6.35;70.35
65995;HTU21D;52764;51.036;5.852;2022-11-20T00:54:27;6.41;70.08
65995;HTU21D;52764;51.036;5.852;2022-11-20T00:56:53;6.40;69.83
65995;HTU21D;52764;51.036;5.852;2022-11-20T00:59:19;6.31;69.71
65995;HTU21D;52764;51.036;5.852;2022-11-20T01:01:44;6.14;69.86
65995;HTU21D;52764;51.036;5.852;2022-11-20T01:04:10;6.04;70.64
65995;HTU21D;52764;51.036;5.852;2022-11-20T01:06:38;6.08;70.61
65995;HTU21D;52764;51.036;5.852;2022-11-20T01:09:11;6.24;70.57
65995;HTU21D;52764;51.036;5.852;2022-11-20T01:11:41;5.64;70.60
65995;HTU21D;52764;51.036;5.852;2022-11-20T01:14:11;6.21;70.57
65995;HTU21D;52764;51.036;5.852;2022-11-20T01:16:41;6.23;70.35
65995;HTU21D;52764;51.036;5.852;2022-11-20T01:19:11;6.28;70.29
65995;HTU21D;52764;51.036;5.852;2022-11-20T01:21:40;-28.25;70.10
65995;HTU21D;52764;51.036;5.852;2022-11-20T01:24:09;6.43;69.92
65995;HTU21D;52764;51.036;5.852;2022-11-20T01:26:38;-9.36;69.64
65995;HTU21D;52764;51.036;5.852;2022-11-20T01:29:05;6.39;69.77
65995;HTU21D;52764;51.036;5.852;2022-11-20T01:31:33;6.22;69.89
65995;HTU21D;52764;51.036;5.852;2022-11-20T01:34:03;6.07;70.23
65995;HTU21D;52764;51.036;5.852;2022-11-20T01:36:30;-29.00;70.66
65995;HTU21D;52764;51.036;5.852;2022-11-20T01:38:59;5.99;70.86
65995;HTU21D;52764;51.036;5.852;2022-11-20T01:41:27;6.07;70.92
65995;HTU21D;52764;51.036;5.852;2022-11-20T01:44:15;6.02;70.86
65995;HTU21D;52764;51.036;5.852;2022-11-20T01:47:03;5.94;71.10
65995;HTU21D;52764;51.036;5.852;2022-11-20T01:49:52;5.90;71.51
65995;HTU21D;52764;51.036;5.852;2022-11-20T01:52:24;5.94;71.71
65995;HTU21D;52764;51.036;5.852;2022-11-20T01:55:21;6.13;71.81
65995;HTU21D;52764;51.036;5.852;2022-11-20T01:57:48;6.17;71.67
65995;HTU21D;52764;51.036;5.852;2022-11-20T02:00:17;6.27;86.77
65995;HTU21D;52764;51.036;5.852;2022-11-20T02:02:51;6.33;71.87
65995;HTU21D;52764;51.036;5.852;2022-11-20T02:05:32;6.37;71.67
65995;HTU21D;52764;51.036;5.852;2022-11-20T02:07:59;6.35;71.96
65995;HTU21D;52764;51.036;5.852;2022-11-20T02:10:27;6.37;72.39
65995;HTU21D;52764;51.036;5.852;2022-11-20T02:12:53;6.35;72.70
65995;HTU21D;52764;51.036;5.852;2022-11-20T02:15:38;6.33;72.41
65995;HTU21D;52764;51.036;5.852;2022-11-20T02:18:05;6.27;72.29
65995;HTU21D;52764;51.036;5.852;2022-11-20T02:20:32;-28.51;72.00
65995;HTU21D;52764;51.036;5.852;2022-11-20T02:23:08;6.16;72.16
65995;HTU21D;52764;51.036;5.852;2022-11-20T02:25:36;6.15;72.06
65995;HTU21D;52764;51.036;5.852;2022-11-20T02:28:05;6.11;71.57
65995;HTU21D;52764;51.036;5.852;2022-11-20T02:30:31;6.08;71.62
65995;HTU21D;52764;51.036;5.852;2022-11-20T02:32:58;6.06;71.73
65995;HTU21D;52764;51.036;5.852;2022-11-20T02:37:52;4.12;71.75
65995;HTU21D;52764;51.036;5.852;2022-11-20T02:40:19;6.13;72.29
65995;HTU21D;52764;51.036;5.852;2022-11-20T02:42:44;5.64;72.35
65995;HTU21D;52764;51.036;5.852;2022-11-20T02:45:11;6.16;73.22
65995;HTU21D;52764;51.036;5.852;2022-11-20T02:47:37;6.19;72.85
65995;HTU21D;52764;51.036;5.852;2022-11-20T02:50:04;6.21;72.84
65995;HTU21D;52764;51.036;5.852;2022-11-20T02:52:30;6.21;72.47
65995;HTU21D;52764;51.036;5.852;2022-11-20T02:54:56;6.16;57.58
65995;HTU21D;52764;51.036;5.852;2022-11-20T02:57:22;6.12;72.32
65995;HTU21D;52764;51.036;5.852;2022-11-20T02:59:48;6.08;72.48
65995;HTU21D;52764;51.036;5.852;2022-11-20T03:02:13;6.06;73.03
65995;HTU21D;52764;51.036;5.852;2022-11-20T03:04:39;6.02;71.94
65995;HTU21D;52764;51.036;5.852;2022-11-20T03:07:05;5.96;71.94
65995;HTU21D;52764;51.036;5.852;2022-11-20T03:09:30;3.82;72.34
65995;HTU21D;52764;51.036;5.852;2022-11-20T03:11:56;5.94;72.50
65995;HTU21D;52764;51.036;5.852;2022-11-20T03:14:22;5.94;72.48
65995;HTU21D;52764;51.036;5.852;2022-11-20T03:16:47;5.89;72.58
65995;HTU21D;52764;51.036;5.852;2022-11-20T03:19:13;5.89;72.71
65995;HTU21D;52764;51.036;5.852;2022-11-20T03:21:39;5.85;73.14
65995;HTU21D;52764;51.036;5.852;2022-11-20T03:24:05;6.50;72.72
65995;HTU21D;52764;51.036;5.852;2022-11-20T03:26:31;5.89;72.75
65995;HTU21D;52764;51.036;5.852;2022-11-20T03:28:59;5.97;72.79
65995;HTU21D;52764;51.036;5.852;2022-11-20T03:31:28;5.99;72.57
65995;HTU21D;52764;51.036;5.852;2022-11-20T03:33:56;5.94;72.27
65995;HTU21D;52764;51.036;5.852;2022-11-20T03:36:22;5.91;72.99
65995;HTU21D;52764;51.036;5.852;2022-11-20T03:38:49;5.89;72.46
65995;HTU21D;52764;51.036;5.852;2022-11-20T03:41:23;5.89;72.83
65995;HTU21D;52764;51.036;5.852;2022-11-20T03:43:57;5.92;72.63
65995;HTU21D;52764;51.036;5.852;2022-11-20T03:46:25;6.05;71.96
65995;HTU21D;52764;51.036;5.852;2022-11-20T03:48:51;5.49;72.04
65995;HTU21D;52764;51.036;5.852;2022-11-20T03:51:18;6.12;71.93
65995;HTU21D;52764;51.036;5.852;2022-11-20T03:53:46;6.11;71.96
65995;HTU21D;52764;51.036;5.852;2022-11-20T03:56:15;6.09;71.50
65995;HTU21D;52764;51.036;5.852;2022-11-20T03:58:42;6.07;71.30
65995;HTU21D;52764;51.036;5.852;2022-11-20T04:01:24;6.04;71.62
65995;HTU21D;52764;51.036;5.852;2022-11-20T04:03:52;14.93;71.83
65995;HTU21D;52764;51.036;5.852;2022-11-20T04:06:25;6.00;71.71
65995;HTU21D;52764;51.036;5.852;2022-11-20T04:08:54;5.99;71.42
65995;HTU21D;52764;51.036;5.852;2022-11-20T04:11:23;5.97;71.58
65995;HTU21D;52764;51.036;5.852;2022-11-20T04:13:56;14.84;71.48
65995;HTU21D;52764;51.036;5.852;2022-11-20T04:16:24;5.95;71.61
65995;HTU21D;52764;51.036;5.852;2022-11-20T04:18:54;5.97;71.59
65995;HTU21D;52764;51.036;5.852;2022-11-20T04:21:21;6.00;71.43
65995;HTU21D;52764;51.036;5.852;2022-11-20T04:23:48;5.94;71.43
65995;HTU21D;52764;51.036;5.852;2022-11-20T04:26:14;5.94;71.07
65995;HTU21D;52764;51.036;5.852;2022-11-20T04:28:40;5.96;71.26
65995;HTU21D;52764;51.036;5.852;2022-11-20T04:31:15;6.00;71.41
65995;HTU21D;52764;51.036;5.852;2022-11-20T04:33:42;6.04;71.43
65995;HTU21D;52764;51.036;5.852;2022-11-20T04:36:17;6.04;71.48
65995;HTU21D;52764;51.036;5.852;2022-11-20T04:38:44;15.14;71.52
65995;HTU21D;52764;51.036;5.852;2022-11-20T04:41:16;6.09;71.27
65995;HTU21D;52764;51.036;5.852;2022-11-20T04:43:50;6.08;71.06
65995;HTU21D;52764;51.036;5.852;2022-11-20T04:46:17;6.11;71.28
65995;HTU21D;52764;51.036;5.852;2022-11-20T04:48:43;6.10;70.30
65995;HTU21D;52764;51.036;5.852;2022-11-20T04:51:09;6.22;71.41
65995;HTU21D;52764;51.036;5.852;2022-11-20T04:53:35;15.18;71.23
65995;HTU21D;52764;51.036;5.852;2022-11-20T04:56:05;6.16;71.19
65995;HTU21D;52764;51.036;5.852;2022-11-20T04:58:32;6.17;71.02
65995;HTU21D;52764;51.036;5.852;2022-11-20T05:01:12;6.09;70.90
65995;HTU21D;52764;51.036;5.852;2022-11-20T05:03:39;6.22;71.01
65995;HTU21D;52764;51.036;5.852;2022-11-20T05:06:05;6.27;71.26
65995;HTU21D;52764;51.036;5.852;2022-11-20T05:08:32;6.29;71.35
65995;HTU21D;52764;51.036;5.852;2022-11-20T05:11:03;6.33;71.20
65995;HTU21D;52764;51.036;5.852;2022-11-20T05:13:29;6.35;71.42
65995;HTU21D;52764;51.036;5.852;2022-11-20T05:15:55;6.41;71.51
65995;HTU21D;52764;51.036;5.852;2022-11-20T05:18:21;6.46;71.36
65995;HTU21D;52764;51.036;5.852;2022-11-20T05:20:55;6.52;70.97
65995;HTU21D;52764;51.036;5.852;2022-11-20T05:23:20;6.55;70.87
65995;HTU21D;52764;51.036;5.852;2022-11-20T05:25:46;16.06;70.82
65995;HTU21D;52764;51.036;5.852;2022-11-20T05:28:12;6.63;70.76
65995;HTU21D;52764;51.036;5.852;2022-11-20T05:30:37;6.66;70.29
65995;HTU21D;52764;51.036;5.852;2022-11-20T05:33:03;6.65;70.27
65995;HTU21D;52764;51.036;5.852;2022-11-20T05:35:29;6.71;70.22
65995;HTU21D;52764;51.036;5.852;2022-11-20T05:37:55;6.65;70.56
65995;HTU21D;52764;51.036;5.852;2022-11-20T05:40:20;6.64;70.55
65995;HTU21D;52764;51.036;5.852;2022-11-20T05:42:46;6.64;70.23
65995;HTU21D;52764;51.036;5.852;2022-11-20T05:45:12;6.63;70.67
65995;HTU21D;52764;51.036;5.852;2022-11-20T05:47:37;6.63;70.66
65995;HTU21D;52764;51.036;5.852;2022-11-20T05:50:03;6.63;70.87
65995;HTU21D;52764;51.036;5.852;2022-11-20T05:52:29;6.52;71.21
65995;HTU21D;52764;51.036;5.852;2022-11-20T05:54:56;6.63;71.58
65995;HTU21D;52764;51.036;5.852;2022-11-20T05:57:22;6.65;71.64
65995;HTU21D;52764;51.036;5.852;2022-11-20T05:59:47;6.66;71.68
65995;HTU21D;52764;51.036;5.852;2022-11-20T06:02:13;6.67;71.77
65995;HTU21D;52764;51.036;5.852;2022-11-20T06:04:39;6.70;71.96
65995;HTU21D;52764;51.036;5.852;2022-11-20T06:07:05;6.70;71.90
65995;HTU21D;52764;51.036;5.852;2022-11-20T06:09:32;6.70;72.03
65995;HTU21D;52764;51.036;5.852;2022-11-20T06:11:57;6.71;72.06
65995;HTU21D;52764;51.036;5.852;2022-11-20T06:14:23;6.73;72.22
65995;HTU21D;52764;51.036;5.852;2022-11-20T06:16:49;5.55;72.06
65995;HTU21D;52764;51.036;5.852;2022-11-20T06:19:15;6.85;71.96
65995;HTU21D;52764;51.036;5.852;2022-11-20T06:21:40;6.83;72.22
65995;HTU21D;52764;51.036;5.852;2022-11-20T06:24:09;16.54;72.35
65995;HTU21D;52764;51.036;5.852;2022-11-20T06:26:35;6.79;72.56
65995;HTU21D;52764;51.036;5.852;2022-11-20T06:29:00;6.80;72.62
65995;HTU21D;52764;51.036;5.852;2022-11-20T06:31:26;6.79;72.77
65995;HTU21D;52764;51.036;5.852;2022-11-20T06:33:52;6.78;72.94
65995;HTU21D;52764;51.036;5.852;2022-11-20T06:36:21;6.80;73.02
65995;HTU21D;52764;51.036;5.852;2022-11-20T06:38:48;6.82;73.12
65995;HTU21D;52764;51.036;5.852;2022-11-20T06:41:16;6.83;73.07
65995;HTU21D;52764;51.036;5.852;2022-11-20T06:43:42;6.83;72.45
65995;HTU21D;52764;51.036;5.852;2022-11-20T06:46:11;6.81;73.16
65995;HTU21D;52764;51.036;5.852;2022-11-20T06:48:37;6.81;73.54
65995;HTU21D;52764;51.036;5.852;2022-11-20T06:51:04;6.80;73.65
65995;HTU21D;52764;51.036;5.852;2022-11-20T06:53:30;6.84;73.73
65995;HTU21D;52764;51.036;5.852;2022-11-20T06:55:56;-27.33;73.77
65995;HTU21D;52764;51.036;5.852;2022-11-20T06:58:26;6.85;73.90
65995;HTU21D;52764;51.036;5.852;2022-11-20T07:00:52;6.91;73.90
65995;HTU21D;52764;51.036;5.852;2022-11-20T07:03:18;6.96;73.87
65995;HTU21D;52764;51.036;5.852;2022-11-20T07:05:44;7.00;73.96
65995;HTU21D;52764;51.036;5.852;2022-11-20T07:08:11;7.03;73.94
65995;HTU21D;52764;51.036;5.852;2022-11-20T07:10:37;-26.92;60.18
65995;HTU21D;52764;51.036;5.852;2022-11-20T07:13:03;7.05;60.03
65995;HTU21D;52764;51.036;5.852;2022-11-20T07:15:29;7.05;73.97
65995;HTU21D;52764;51.036;5.852;2022-11-20T07:17:57;7.08;74.04
65995;HTU21D;52764;51.036;5.852;2022-11-20T07:20:23;7.12;73.99
65995;HTU21D;52764;51.036;5.852;2022-11-20T07:22:54;7.15;73.96
65995;HTU21D;52764;51.036;5.852;2022-11-20T07:25:20;7.14;74.18
65995;HTU21D;52764;51.036;5.852;2022-11-20T07:27:46;7.11;74.25
65995;HTU21D;52764;51.036;5.852;2022-11-20T07:30:12;7.08;76.82
65995;HTU21D;52764;51.036;5.852;2022-11-20T07:32:39;7.05;74.67
65995;HTU21D;52764;51.036;5.852;2022-11-20T07:35:05;7.05;74.73
65995;HTU21D;52764;51.036;5.852;2022-11-20T07:37:34;7.08;74.76
65995;HTU21D;52764;51.036;5.852;2022-11-20T07:40:00;7.11;75.05
65995;HTU21D;52764;51.036;5.852;2022-11-20T07:42:25;7.10;74.47
65995;HTU21D;52764;51.036;5.852;2022-11-20T07:44:51;7.12;74.36
65995;HTU21D;52764;51.036;5.852;2022-11-20T07:47:16;7.12;74.35
65995;HTU21D;52764;51.036;5.852;2022-11-20T07:49:42;7.13;74.39
65995;HTU21D;52764;51.036;5.852;2022-11-20T07:52:08;7.14;74.41
65995;HTU21D;52764;51.036;5.852;2022-11-20T07:54:34;7.23;74.18
65995;HTU21D;52764;51.036;5.852;2022-11-20T07:56:59;7.27;73.99
65995;HTU21D;52764;51.036;5.852;2022-11-20T07:59:25;7.29;73.93
65995;HTU21D;52764;51.036;5.852;2022-11-20T08:01:51;-6.18;74.00
65995;HTU21D;52764;51.036;5.852;2022-11-20T08:04:16;7.23;74.20
65995;HTU21D;52764;51.036;5.852;2022-11-20T08:06:42;7.26;74.22
65995;HTU21D;52764;51.036;5.852;2022-11-20T08:09:08;7.33;73.83
65995;HTU21D;52764;51.036;5.852;2022-11-20T08:11:34;7.33;73.73
65995;HTU21D;52764;51.036;5.852;2022-11-20T08:14:18;7.35;73.60
65995;HTU21D;52764;51.036;5.852;2022-11-20T08:16:46;7.40;75.06
65995;HTU21D;52764;51.036;5.852;2022-11-20T08:19:14;7.34;73.99
65995;HTU21D;52764;51.036;5.852;2022-11-20T08:21:40;7.40;76.12
65995;HTU21D;52764;51.036;5.852;2022-11-20T08:24:07;7.35;73.84
65995;HTU21D;52764;51.036;5.852;2022-11-20T08:26:34;7.30;65.37
65995;HTU21D;52764;51.036;5.852;2022-11-20T08:29:00;7.32;74.52
65995;HTU21D;52764;51.036;5.852;2022-11-20T08:31:27;7.39;74.54
65995;HTU21D;52764;51.036;5.852;2022-11-20T08:33:53;7.55;74.71
65995;HTU21D;52764;51.036;5.852;2022-11-20T08:36:20;7.57;74.64
65995;HTU21D;52764;51.036;5.852;2022-11-20T08:38:55;7.68;74.10
65995;HTU21D;52764;51.036;5.852;2022-11-20T08:41:22;7.75;73.95
65995;HTU21D;52764;51.036;5.852;2022-11-20T08:43:56;7.82;73.70
65995;HTU21D;52764;51.036;5.852;2022-11-20T08:46:24;7.88;73.51
65995;HTU21D;52764;51.036;5.852;2022-11-20T08:48:50;7.91;73.52
65995;HTU21D;52764;51.036;5.852;2022-11-20T08:51:16;8.00;72.88
65995;HTU21D;52764;51.036;5.852;2022-11-20T08:53:42;8.09;72.65
65995;HTU21D;52764;51.036;5.852;2022-11-20T08:56:08;8.17;72.48
65995;HTU21D;52764;51.036;5.852;2022-11-20T08:58:35;8.21;71.90
65995;HTU21D;52764;51.036;5.852;2022-11-20T09:01:01;8.24;71.84
65995;HTU21D;52764;51.036;5.852;2022-11-20T09:03:27;8.26;71.58
65995;HTU21D;52764;51.036;5.852;2022-11-20T09:05:58;8.26;71.44
65995;HTU21D;52764;51.036;5.852;2022-11-20T09:08:24;8.29;71.26
65995;HTU21D;52764;51.036;5.852;2022-11-20T09:10:54;8.19;71.06
65995;HTU21D;52764;51.036;5.852;2022-11-20T09:13:24;8.21;71.35
65995;HTU21D;52764;51.036;5.852;2022-11-20T09:15:58;8.24;71.27
65995;HTU21D;52764;51.036;5.852;2022-11-20T09:18:25;8.24;71.08
65995;HTU21D;52764;51.036;5.852;2022-11-20T09:20:51;8.23;71.04
65995;HTU21D;52764;51.036;5.852;2022-11-20T09:23:17;8.27;70.58
65995;HTU21D;52764;51.036;5.852;2022-11-20T09:25:43;8.30;69.28
65995;HTU21D;52764;51.036;5.852;2022-11-20T09:28:09;8.37;70.83
65995;HTU21D;52764;51.036;5.852;2022-11-20T09:30:35;8.39;70.45
65995;HTU21D;52764;51.036;5.852;2022-11-20T09:33:00;-2.38;70.37
65995;HTU21D;52764;51.036;5.852;2022-11-20T09:35:26;8.23;71.11
65995;HTU21D;52764;51.036;5.852;2022-11-20T09:37:52;8.20;71.33
65995;HTU21D;52764;51.036;5.852;2022-11-20T09:40:28;8.23;71.42
65995;HTU21D;52764;51.036;5.852;2022-11-20T09:43:05;8.31;71.31
65995;HTU21D;52764;51.036;5.852;2022-11-20T09:48:42;8.38;71.06
65995;HTU21D;52764;51.036;5.852;2022-11-20T09:54:19;8.34;70.73
65995;HTU21D;52764;51.036;5.852;2022-11-20T09:56:50;8.26;70.56
65995;HTU21D;52764;51.036;5.852;2022-11-20T09:59:41;8.22;71.13
65995;HTU21D;52764;51.036;5.852;2022-11-20T10:05:10;8.16;71.29
65995;HTU21D;52764;51.036;5.852;2022-11-20T10:10:16;8.42;71.37
65995;HTU21D;52764;51.036;5.852;2022-11-20T10:18:48;8.38;71.00
65995;HTU21D;52764;51.036;5.852;2022-11-20T10:29:39;8.52;70.06
65995;HTU21D;52764;51.036;5.852;2022-11-20T10:32:18;8.45;70.39
65995;HTU21D;52764;51.036;5.852;2022-11-20T10:34:52;-45.48;70.97
65995;HTU21D;52764;51.036;5.852;2022-11-20T10:37:25;8.74;85.96
65995;HTU21D;52764;51.036;5.852;2022-11-20T10:42:49;8.45;71.57
65995;HTU21D;52764;51.036;5.852;2022-11-20T10:50:36;8.53;72.03
65995;HTU21D;52764;51.036;5.852;2022-11-20T11:01:26;-1.46;72.44
65995;HTU21D;52764;51.036;5.852;2022-11-20T11:03:55;8.87;72.35
65995;HTU21D;52764;51.036;5.852;2022-11-20T11:09:02;9.02;72.19
65995;HTU21D;52764;51.036;5.852;2022-11-20T11:11:33;9.12;72.00
65995;HTU21D;52764;51.036;5.852;2022-11-20T11:14:14;10.16;71.83
65995;HTU21D;52764;51.036;5.852;2022-11-20T11:16:54;10.12;71.99
65995;HTU21D;52764;51.036;5.852;2022-11-20T11:19:21;8.92;72.06
65995;HTU21D;52764;51.036;5.852;2022-11-20T11:21:50;9.19;72.33
65995;HTU21D;52764;51.036;5.852;2022-11-20T11:24:25;9.17;72.56
65995;HTU21D;52764;51.036;5.852;2022-11-20T11:27:04;9.09;72.82
65995;HTU21D;52764;51.036;5.852;2022-11-20T11:29:36;9.14;73.05
65995;HTU21D;52764;51.036;5.852;2022-11-20T11:32:07;9.16;73.27
65995;HTU21D;52764;51.036;5.852;2022-11-20T11:34:33;9.20;73.21
65995;HTU21D;52764;51.036;5.852;2022-11-20T11:37:01;9.22;73.28
65995;HTU21D;52764;51.036;5.852;2022-11-20T11:39:31;-22.61;74.27
65995;HTU21D;52764;51.036;5.852;2022-11-20T11:42:00;9.18;73.68
65995;HTU21D;52764;51.036;5.852;2022-11-20T11:44:34;9.11;73.87
65995;HTU21D;52764;51.036;5.852;2022-11-20T11:47:25;9.08;74.33
65995;HTU21D;52764;51.036;5.852;2022-11-20T11:50:27;9.12;74.35
65995;HTU21D;52764;51.036;5.852;2022-11-20T11:55:42;9.24;74.54
65995;HTU21D;52764;51.036;5.852;2022-11-20T12:01:08;9.42;74.55
65995;HTU21D;52764;51.036;5.852;2022-11-20T12:03:39;9.47;74.31
65995;HTU21D;52764;51.036;5.852;2022-11-20T12:06:14;9.49;74.28
65995;HTU21D;52764;51.036;5.852;2022-11-20T12:11:49;9.48;74.59
65995;HTU21D;52764;51.036;5.852;2022-11-20T12:14:37;9.37;74.53
65995;HTU21D;52764;51.036;5.852;2022-11-20T12:17:05;9.32;74.91
65995;HTU21D;52764;51.036;5.852;2022-11-20T12:19:34;9.37;75.12
65995;HTU21D;52764;51.036;5.852;2022-11-20T12:30:16;9.72;77.32
65995;HTU21D;52764;51.036;5.852;2022-11-20T12:35:37;9.84;74.35
65995;HTU21D;52764;51.036;5.852;2022-11-20T12:43:29;9.77;77.87
65995;HTU21D;52764;51.036;5.852;2022-11-20T12:56:54;9.66;76.10
65995;HTU21D;52764;51.036;5.852;2022-11-20T13:02:19;9.65;76.50
65995;HTU21D;52764;51.036;5.852;2022-11-20T13:07:28;9.65;77.13
65995;HTU21D;52764;51.036;5.852;2022-11-20T13:09:55;9.62;77.15
65995;HTU21D;52764;51.036;5.852;2022-11-20T13:12:37;9.56;77.65
65995;HTU21D;52764;51.036;5.852;2022-11-20T13:17:58;9.60;77.79
65995;HTU21D;52764;51.036;5.852;2022-11-20T13:20:25;9.64;77.55
65995;HTU21D;52764;51.036;5.852;2022-11-20T13:22:53;9.66;77.72
65995;HTU21D;52764;51.036;5.852;2022-11-20T13:25:36;9.65;77.97
65995;HTU21D;52764;51.036;5.852;2022-11-20T13:30:36;9.63;77.85
65995;HTU21D;52764;51.036;5.852;2022-11-20T13:33:27;-21.73;78.04
65995;HTU21D;52764;51.036;5.852;2022-11-20T13:36:00;9.76;78.21
65995;HTU21D;52764;51.036;5.852;2022-11-20T13:38:26;9.94;77.89
65995;HTU21D;52764;51.036;5.852;2022-11-20T13:40:58;10.08;77.51
65995;HTU21D;52764;51.036;5.852;2022-11-20T13:43:35;9.47;76.47
65995;HTU21D;52764;51.036;5.852;2022-11-20T13:46:05;10.20;77.37
65995;HTU21D;52764;51.036;5.852;2022-11-20T13:48:34;10.27;77.05
65995;HTU21D;52764;51.036;5.852;2022-11-20T13:54:25;10.42;76.86
65995;HTU21D;52764;51.036;5.852;2022-11-20T13:57:17;10.48;76.70
65995;HTU21D;52764;51.036;5.852;2022-11-20T14:02:17;10.57;76.79
65995;HTU21D;52764;51.036;5.852;2022-11-20T14:04:49;10.54;76.82
65995;HTU21D;52764;51.036;5.852;2022-11-20T14:07:19;10.55;76.73
65995;HTU21D;52764;51.036;5.852;2022-11-20T14:09:54;10.58;76.14
65995;HTU21D;52764;51.036;5.852;2022-11-20T14:12:29;10.62;75.89
65995;HTU21D;52764;51.036;5.852;2022-11-20T14:14:55;10.64;75.64
65995;HTU21D;52764;51.036;5.852;2022-11-20T14:17:31;10.34;75.83
65995;HTU21D;52764;51.036;5.852;2022-11-20T14:20:02;10.12;75.83
65995;HTU21D;52764;51.036;5.852;2022-11-20T14:22:29;10.48;75.34
65995;HTU21D;52764;51.036;5.852;2022-11-20T14:27:27;10.40;79.43
65995;HTU21D;52764;51.036;5.852;2022-11-20T14:29:53;10.38;75.77
65995;HTU21D;52764;51.036;5.852;2022-11-20T14:32:23;10.37;75.61
65995;HTU21D;52764;51.036;5.852;2022-11-20T14:34:53;10.33;75.92
65995;HTU21D;52764;51.036;5.852;2022-11-20T14:37:23;10.31;75.98
65995;HTU21D;52764;51.036;5.852;2022-11-20T14:39:55;10.26;76.17
65995;HTU21D;52764;51.036;5.852;2022-11-20T14:42:25;10.18;76.73
65995;HTU21D;52764;51.036;5.852;2022-11-20T14:44:56;-20.85;77.15
65995;HTU21D;52764;51.036;5.852;2022-11-20T14:47:26;10.04;77.61
65995;HTU21D;52764;51.036;5.852;2022-11-20T14:49:54;9.99;77.86
65995;HTU21D;52764;51.036;5.852;2022-11-20T14:52:26;9.91;78.05
65995;HTU21D;52764;51.036;5.852;2022-11-20T14:54:57;9.80;78.50
65995;HTU21D;52764;51.036;5.852;2022-11-20T14:57:27;3.86;79.15
65995;HTU21D;52764;51.036;5.852;2022-11-20T15:02:42;0.21;79.62
65995;HTU21D;52764;51.036;5.852;2022-11-20T15:05:09;9.61;79.79
65995;HTU21D;52764;51.036;5.852;2022-11-20T15:07:40;9.54;80.03
65995;HTU21D;52764;51.036;5.852;2022-11-20T15:10:28;9.50;80.73
65995;HTU21D;52764;51.036;5.852;2022-11-20T15:12:58;9.50;80.45
65995;HTU21D;52764;51.036;5.852;2022-11-20T15:15:46;9.47;80.94
65995;HTU21D;52764;51.036;5.852;2022-11-20T15:18:36;-0.11;81.30
65995;HTU21D;52764;51.036;5.852;2022-11-20T15:21:10;9.44;81.21
65995;HTU21D;52764;51.036;5.852;2022-11-20T15:23:36;-22.14;81.50
65995;HTU21D;52764;51.036;5.852;2022-11-20T15:26:07;9.40;81.66
65995;HTU21D;52764;51.036;5.852;2022-11-20T15:28:39;9.40;81.90
65995;HTU21D;52764;51.036;5.852;2022-11-20T15:31:06;10.72;81.91
65995;HTU21D;52764;51.036;5.852;2022-11-20T15:33:33;9.44;81.91
65995;HTU21D;52764;51.036;5.852;2022-11-20T15:35:59;9.37;82.05
65995;HTU21D;52764;51.036;5.852;2022-11-20T15:38:25;9.25;82.20
65995;HTU21D;52764;51.036;5.852;2022-11-20T15:40:51;-22.57;82.59
65995;HTU21D;52764;51.036;5.852;2022-11-20T15:43:17;-22.57;82.84
65995;HTU21D;52764;51.036;5.852;2022-11-20T15:45:53;10.12;82.98
65995;HTU21D;52764;51.036;5.852;2022-11-20T15:48:27;9.21;83.20
65995;HTU21D;52764;51.036;5.852;2022-11-20T15:53:38;9.23;83.44
65995;HTU21D;52764;51.036;5.852;2022-11-20T15:56:05;9.20;83.56
65995;HTU21D;52764;51.036;5.852;2022-11-20T15:58:31;9.18;83.79
65995;HTU21D;52764;51.036;5.852;2022-11-20T16:00:57;9.14;83.63
65995;HTU21D;52764;51.036;5.852;2022-11-20T16:03:23;9.14;83.49
65995;HTU21D;52764;51.036;5.852;2022-11-20T16:05:48;9.16;83.56
65995;HTU21D;52764;51.036;5.852;2022-11-20T16:08:14;9.21;83.61
65995;HTU21D;52764;51.036;5.852;2022-11-20T16:10:40;9.24;83.55
65995;HTU21D;52764;51.036;5.852;2022-11-20T16:13:14;9.25;83.45
65995;HTU21D;52764;51.036;5.852;2022-11-20T16:16:03;9.32;83.68
65995;HTU21D;52764;51.036;5.852;2022-11-20T16:18:31;9.35;83.61
65995;HTU21D;52764;51.036;5.852;2022-11-20T16:20:57;9.36;83.13
65995;HTU21D;52764;51.036;5.852;2022-11-20T16:23:23;9.38;83.47
65995;HTU21D;52764;51.036;5.852;2022-11-20T16:25:50;9.38;83.40
65995;HTU21D;52764;51.036;5.852;2022-11-20T16:28:16;9.39;83.53
65995;HTU21D;52764;51.036;5.852;2022-11-20T16:30:42;9.42;83.55
65995;HTU21D;52764;51.036;5.852;2022-11-20T16:33:13;9.39;83.57
65995;HTU21D;52764;51.036;5.852;2022-11-20T16:35:39;9.38;83.71
65995;HTU21D;52764;51.036;5.852;2022-11-20T16:38:05;9.41;83.97
65995;HTU21D;52764;51.036;5.852;2022-11-20T16:40:31;9.39;84.08
65995;HTU21D;52764;51.036;5.852;2022-11-20T16:42:56;9.36;84.43
65995;HTU21D;52764;51.036;5.852;2022-11-20T16:45:23;9.34;84.62
65995;HTU21D;52764;51.036;5.852;2022-11-20T16:47:49;9.37;84.90
65995;HTU21D;52764;51.036;5.852;2022-11-20T16:50:15;9.49;84.70
65995;HTU21D;52764;51.036;5.852;2022-11-20T16:52:40;9.51;84.62
65995;HTU21D;52764;51.036;5.852;2022-11-20T16:55:06;9.55;84.34
65995;HTU21D;52764;51.036;5.852;2022-11-20T16:57:32;9.59;84.53
65995;HTU21D;52764;51.036;5.852;2022-11-20T16:59:59;9.60;84.45
65995;HTU21D;52764;51.036;5.852;2022-11-20T17:02:25;9.62;84.48
65995;HTU21D;52764;51.036;5.852;2022-11-20T17:04:52;9.61;84.49
65995;HTU21D;52764;51.036;5.852;2022-11-20T17:07:18;9.62;84.67
65995;HTU21D;52764;51.036;5.852;2022-11-20T17:09:44;9.64;84.68
65995;HTU21D;52764;51.036;5.852;2022-11-20T17:12:10;9.65;84.80
65995;HTU21D;52764;51.036;5.852;2022-11-20T17:14:35;11.26;84.77
65995;HTU21D;52764;51.036;5.852;2022-11-20T17:17:01;9.70;84.80
65995;HTU21D;52764;51.036;5.852;2022-11-20T17:19:27;9.74;84.65
65995;HTU21D;52764;51.036;5.852;2022-11-20T17:21:53;9.77;84.58
65995;HTU21D;52764;51.036;5.852;2022-11-20T17:24:19;9.77;84.60
65995;HTU21D;52764;51.036;5.852;2022-11-20T17:26:45;9.79;84.64